3T5

Fayette Regional Air Center Airport

La Grange, Texas, USA
METAR K3T5 210935Z AUTO 13007KT 10SM OVC011 17/16 A2994 RMK AO2 T01730155
Observed Flight Rules
Apr-21 @ 09:35 UTC (12 minutes ago) Marginal Visual Flight Rules
Wind Visibility Clouds
130° at 7 knots 10 miles
  • Overcast at 1,100' AGL
Temperatures Readings
Current 17°C / 63°F
Dewpoint 16°C / 61°F
Humidity 94%
Altimeter 29.94" Hg
Pressure 1014 hPa
Elevation 99
METAR K3T5 210935Z AUTO 13007KT 10SM OVC011 17/16 A2994 RMK AO2 T01730155
Observed Flight Rules
Apr-21 @ 09:35 UTC
(12 minutes ago)
MVFR
Wind Visibility
130° at 7 knots 10 miles
Clouds
  • Overcast at 1,100' AGL
Temperature Dewpoint
17°C / 63°F 16°C / 61°F
Humidity Altimeter Pressure
94% 29.94" Hg 1014 hPa